createdAt,value
2022-09-07T04:43:17.910Z,12.18
2022-09-07T06:00:41.850Z,6.53
2022-09-07T06:04:34.467Z,6.18
2022-09-07T06:08:27.011Z,5.32
2022-09-07T06:12:19.500Z,5.47
2022-09-07T06:16:13.589Z,5.18
2022-09-07T06:20:07.643Z,6.28
2022-09-07T06:24:00.150Z,8.02
2022-09-07T06:27:54.067Z,6.53
2022-09-07T06:36:05.056Z,8.63
2022-09-07T06:39:57.813Z,5.30
2022-09-07T06:43:50.804Z,5.57
2022-09-07T06:47:43.273Z,4.97
2022-09-07T06:51:35.584Z,4.85
2022-09-07T06:55:28.346Z,4.00
2022-09-07T06:59:21.445Z,5.72
2022-09-07T07:03:14.074Z,4.38
2022-09-07T07:07:06.781Z,6.15
2022-09-07T07:11:08.235Z,6.43
2022-09-07T07:15:00.613Z,4.85
2022-09-07T07:18:56.592Z,5.68
2022-09-07T07:22:51.732Z,5.60
2022-09-07T07:26:48.680Z,5.88
2022-09-07T07:30:41.112Z,4.75
2022-09-07T07:34:33.657Z,5.60
2022-09-07T07:42:39.886Z,5.95
2022-09-07T07:46:32.498Z,6.55
2022-09-07T07:50:32.772Z,5.35
2022-09-07T07:54:25.914Z,5.30
2022-09-07T07:58:18.798Z,4.53
2022-09-07T08:02:15.555Z,7.47
2022-09-07T08:10:07.668Z,3.97
2022-09-07T08:14:01.623Z,6.72
2022-09-07T08:17:54.008Z,5.13
2022-09-07T08:21:46.468Z,5.50
2022-09-07T08:25:39.368Z,6.88
2022-09-07T08:29:34.649Z,4.30
2022-09-07T08:33:27.894Z,5.80
2022-09-07T08:37:20.771Z,6.28
2022-09-07T08:41:34.653Z,6.47
2022-09-07T08:45:38.259Z,5.00
2022-09-07T08:49:40.832Z,5.93
2022-09-07T08:53:37.523Z,7.43
2022-09-07T09:01:34.661Z,4.35
2022-09-07T09:05:32.129Z,4.55
2022-09-07T09:13:30.587Z,7.07
2022-09-07T09:17:35.704Z,4.40
2022-09-07T09:21:28.190Z,4.45
2022-09-07T09:25:36.735Z,7.53
2022-09-07T09:29:29.299Z,5.10
2022-09-07T09:33:27.214Z,4.22
2022-09-07T09:37:33.756Z,7.70
2022-09-07T09:46:11.761Z,7.75
2022-09-07T09:49:45.417Z,9.32
2022-09-07T09:53:43.343Z,9.15
2022-09-07T09:59:04.664Z,5.72
2022-09-07T10:06:37.404Z,5.43
2022-09-07T10:10:31.564Z,5.93
2022-09-07T10:14:31.762Z,4.03
2022-09-07T10:18:37.697Z,4.35
2022-09-07T10:22:35.236Z,5.77
2022-09-07T10:26:36.952Z,4.70
2022-09-07T10:30:36.806Z,4.97
2022-09-07T10:34:47.769Z,6.20
2022-09-07T10:38:47.314Z,6.07
2022-09-07T10:47:26.720Z,7.38
2022-09-07T10:51:34.836Z,6.45
2022-09-07T10:55:39.336Z,4.65
2022-09-07T11:04:15.162Z,6.03
2022-09-07T11:13:07.112Z,8.37
2022-09-07T11:17:05.254Z,4.20
2022-09-07T11:21:03.598Z,6.55
2022-09-07T11:29:30.135Z,4.45
2022-09-07T11:33:31.432Z,4.95
2022-09-07T11:37:31.111Z,12.35
2022-09-07T11:41:39.872Z,8.82
2022-09-07T11:45:46.730Z,4.28
2022-09-07T11:53:39.302Z,5.75
2022-09-07T11:57:55.600Z,5.13
2022-09-07T12:02:13.989Z,12.48
2022-09-07T12:06:25.455Z,4.90
2022-09-07T12:10:36.777Z,5.97
2022-09-07T12:15:13.215Z,5.53
2022-09-07T12:19:18.294Z,6.90
2022-09-07T12:23:16.532Z,5.40
2022-09-07T12:27:21.343Z,5.15
2022-09-07T12:31:14.615Z,6.13
2022-09-07T12:35:38.625Z,7.32
2022-09-07T12:39:33.075Z,6.78
2022-09-07T12:43:31.838Z,7.20
2022-09-07T12:47:30.527Z,7.40
2022-09-07T12:56:16.284Z,6.88
2022-09-07T13:00:25.080Z,6.20
2022-09-07T13:04:46.355Z,8.48
2022-09-07T13:08:54.292Z,6.47
2022-09-07T13:12:54.109Z,6.45
2022-09-07T13:21:07.290Z,8.27
2022-09-07T13:25:02.324Z,8.80
2022-09-07T13:29:11.244Z,8.75
2022-09-07T13:33:25.451Z,6.32
2022-09-07T13:37:24.562Z,8.02
2022-09-07T13:41:19.800Z,9.40
2022-09-07T13:45:33.610Z,8.32
2022-09-07T13:49:45.381Z,7.07
2022-09-07T13:53:56.714Z,8.88
2022-09-07T13:58:01.670Z,10.90
2022-09-07T14:01:55.406Z,8.82
2022-09-07T14:05:47.878Z,8.48
2022-09-07T14:09:40.530Z,9.70
2022-09-07T14:13:32.884Z,8.43
2022-09-07T14:17:27.623Z,6.78
2022-09-07T14:21:20.343Z,9.90
2022-09-07T14:25:17.947Z,10.38
2022-09-07T14:29:22.442Z,9.50
2022-09-07T14:33:20.306Z,9.07
2022-09-07T14:37:17.914Z,6.70
2022-09-07T14:41:20.336Z,7.28
2022-09-07T14:45:19.868Z,9.07
2022-09-07T14:49:20.459Z,10.60
2022-09-07T14:53:34.651Z,7.15
2022-09-07T14:57:32.456Z,8.20
2022-09-07T15:01:41.754Z,9.25
2022-09-07T15:05:47.979Z,6.28
2022-09-07T15:09:40.409Z,7.00
2022-09-07T15:13:34.634Z,8.00
2022-09-07T15:17:47.833Z,8.07
2022-09-07T15:21:40.455Z,8.30
2022-09-07T15:25:34.931Z,9.60
2022-09-07T15:29:29.097Z,8.82
2022-09-07T15:33:22.123Z,7.78
2022-09-07T15:41:27.764Z,9.88
2022-09-07T15:45:20.371Z,10.07
2022-09-07T15:49:12.841Z,6.75
2022-09-07T15:53:05.340Z,8.20
2022-09-07T16:05:30.797Z,7.20
2022-09-07T16:09:23.978Z,9.55
2022-09-07T16:13:17.060Z,7.35
2022-09-07T16:21:26.317Z,7.75
2022-09-07T16:25:19.400Z,10.07
2022-09-07T16:29:12.271Z,9.48
2022-09-07T16:33:04.795Z,9.85
2022-09-07T16:36:57.242Z,8.85
2022-09-07T16:40:50.087Z,9.20
2022-09-07T16:44:42.702Z,7.88
2022-09-07T16:48:36.272Z,13.63
2022-09-07T16:52:28.654Z,9.00
2022-09-07T16:56:23.666Z,9.90
2022-09-07T17:00:16.921Z,11.68
2022-09-07T17:04:11.163Z,8.60
2022-09-07T17:08:04.025Z,11.20
2022-09-07T17:11:56.644Z,8.38
2022-09-07T17:15:49.183Z,8.10
2022-09-07T17:19:41.755Z,10.90
2022-09-07T17:23:43.231Z,13.07
2022-09-07T17:27:41.175Z,12.55
2022-09-07T17:35:49.101Z,10.77
2022-09-07T17:39:41.721Z,10.77
2022-09-07T17:43:45.294Z,11.38
2022-09-07T17:47:38.863Z,9.15
2022-09-07T17:51:32.974Z,9.82
2022-09-07T17:55:25.306Z,8.38
2022-09-07T18:03:35.645Z,12.15
2022-09-07T18:07:28.914Z,10.65
2022-09-07T18:15:40.264Z,9.07
2022-09-07T18:19:33.030Z,8.93
2022-09-07T18:23:25.918Z,11.13
2022-09-07T18:27:21.577Z,9.43
2022-09-07T18:31:14.758Z,10.63
2022-09-07T18:35:08.246Z,10.70
2022-09-07T18:39:02.315Z,9.40
2022-09-07T18:42:55.725Z,9.05
2022-09-07T18:46:48.437Z,10.85
2022-09-07T18:50:41.307Z,9.43
2022-09-07T18:54:34.081Z,10.52
2022-09-07T18:58:26.824Z,11.32
2022-09-07T19:02:19.825Z,11.10
2022-09-07T19:06:13.994Z,12.35
2022-09-07T19:10:08.475Z,9.48
2022-09-07T19:14:04.710Z,10.57
2022-09-07T19:17:58.306Z,12.07
2022-09-07T19:21:51.227Z,10.52
2022-09-07T19:25:44.003Z,11.52
2022-09-07T19:29:36.730Z,9.40
2022-09-07T19:33:29.612Z,9.57
2022-09-07T19:37:26.277Z,9.95
2022-09-07T19:41:19.158Z,10.05
2022-09-07T19:45:12.800Z,9.20
2022-09-07T19:49:12.177Z,10.95
2022-09-07T19:53:05.509Z,9.77
2022-09-07T19:57:11.070Z,10.00
2022-09-07T20:01:11.697Z,9.25
2022-09-07T20:05:07.107Z,11.73
2022-09-07T20:09:02.717Z,14.10
2022-09-07T20:12:55.134Z,10.32
2022-09-07T20:16:48.308Z,11.45
2022-09-07T20:20:41.027Z,10.20
2022-09-07T20:24:35.478Z,11.40
2022-09-07T20:28:29.192Z,10.57
2022-09-07T20:32:21.858Z,11.07
2022-09-07T20:36:17.225Z,11.57
2022-09-07T20:40:10.607Z,11.35
2022-09-07T20:44:05.542Z,11.20
2022-09-07T20:47:57.854Z,12.05
2022-09-07T20:51:50.254Z,11.18
2022-09-07T20:55:42.701Z,12.23
2022-09-07T20:59:35.195Z,17.23
